Tusculam, Pennsylvania
Current Conditions -  °F | °C
As of 1:53 PM on Thursday 30 Oct 2014 (Local Time) from KHGR Reporting Station
Overcast Overcast  
Wind Chill: 53°   Ceiling: 5000
Heat Index: 53°   Visibility: 10mi
Dew Point: 38°   Wind: 12mph
Humidity: 57%   Direction: 300°WNW
Pressure: 30.05"   Gusts: NA
Location:  40.0414°N, 77.4967°W
Report Text: KHGR 301753Z 30010KT 10SM OVC050 12/03 A3005 RMK AO2 SLP186 T01170033 10133 20061 58009
Loading
Personal Weather Stations






























Interactive Weather Map
Tropical Storm Tracking
New forecast layout! Learn more

10-Day Weather Forecast

Advertisements
Track Severe Weather on mobile